createdAt,value
2023-03-07T00:00:57.185Z,25.46
2023-03-07T00:01:57.217Z,25.47
2023-03-07T00:02:57.331Z,25.46
2023-03-07T00:03:57.510Z,25.43
2023-03-07T00:04:57.494Z,25.47
2023-03-07T00:05:57.548Z,25.46
2023-03-07T00:11:58.035Z,25.47
2023-03-07T00:12:58.081Z,25.44
2023-03-07T00:13:58.163Z,25.47
2023-03-07T00:14:58.241Z,25.46
2023-03-07T00:15:58.381Z,25.44
2023-03-07T00:16:58.406Z,25.43
2023-03-07T00:17:58.475Z,25.47
2023-03-07T00:18:58.529Z,25.44
2023-03-07T00:19:58.666Z,25.47
2023-03-07T00:20:58.720Z,25.44
2023-03-07T00:21:58.845Z,25.44
2023-03-07T00:22:58.918Z,25.43
2023-03-07T00:23:58.984Z,25.46
2023-03-07T00:24:59.096Z,25.46
2023-03-07T00:25:59.141Z,25.46
2023-03-07T00:26:59.211Z,25.44
2023-03-07T00:27:59.280Z,25.44
2023-03-07T00:28:59.381Z,25.46
2023-03-07T00:29:59.471Z,25.47
2023-03-07T00:30:59.534Z,25.46
2023-03-07T00:31:59.611Z,25.46
2023-03-07T00:32:59.714Z,25.44
2023-03-07T00:33:59.766Z,25.44
2023-03-07T00:34:59.846Z,25.44
2023-03-07T00:36:00.052Z,25.41
2023-03-07T00:37:00.021Z,25.43
2023-03-07T00:38:00.079Z,25.41
2023-03-07T00:39:00.211Z,25.43
2023-03-07T00:40:00.284Z,25.43
2023-03-07T00:41:00.636Z,25.46
2023-03-07T00:42:00.440Z,25.44
2023-03-07T00:43:00.483Z,25.47
2023-03-07T00:44:00.612Z,25.44
2023-03-07T00:45:00.650Z,25.43
2023-03-07T00:46:00.832Z,25.41
2023-03-07T00:47:00.808Z,25.41
2023-03-07T00:48:00.852Z,25.43
2023-03-07T00:49:00.953Z,25.44
2023-03-07T00:50:01.008Z,25.43
2023-03-07T00:51:01.135Z,25.43
2023-03-07T00:52:01.204Z,25.44
2023-03-07T00:53:01.242Z,25.44
2023-03-07T00:54:01.317Z,25.43
2023-03-07T00:55:01.366Z,25.44
2023-03-07T00:56:01.434Z,25.41
2023-03-07T00:57:01.542Z,25.43
2023-03-07T00:58:01.572Z,25.44
2023-03-07T00:59:01.671Z,25.43
2023-03-07T01:00:01.780Z,25.43
2023-03-07T01:01:01.895Z,25.41
2023-03-07T01:02:01.874Z,25.43
2023-03-07T01:03:02.013Z,25.44
2023-03-07T01:04:02.075Z,25.44
2023-03-07T01:05:02.111Z,25.47
2023-03-07T01:06:02.222Z,25.44
2023-03-07T01:07:02.275Z,25.46
2023-03-07T01:08:02.355Z,25.44
2023-03-07T01:09:02.423Z,25.44
2023-03-07T01:10:02.562Z,25.44
2023-03-07T01:11:02.585Z,25.41
2023-03-07T01:12:02.688Z,25.46
2023-03-07T01:13:02.733Z,25.43
2023-03-07T01:14:02.836Z,25.43
2023-03-07T01:15:02.907Z,25.46
2023-03-07T01:16:02.945Z,25.44
2023-03-07T01:17:03.040Z,25.46
2023-03-07T01:18:03.119Z,25.44
2023-03-07T01:19:03.252Z,25.46
2023-03-07T01:20:03.289Z,25.47
2023-03-07T01:21:03.380Z,25.43
2023-03-07T01:22:03.406Z,25.47
2023-03-07T01:23:03.527Z,25.46
2023-03-07T01:24:03.575Z,25.46
2023-03-07T01:25:03.689Z,25.44
2023-03-07T01:26:03.740Z,25.47
2023-03-07T01:27:03.852Z,25.43
2023-03-07T01:28:03.885Z,25.46
2023-03-07T01:29:04.051Z,25.41
2023-03-07T01:30:04.074Z,25.43
2023-03-07T01:31:04.150Z,25.44
2023-03-07T01:32:04.300Z,25.43
2023-03-07T01:33:04.301Z,25.46
2023-03-07T01:34:04.396Z,25.44
2023-03-07T01:35:04.480Z,25.44
2023-03-07T01:36:04.630Z,25.43
2023-03-07T01:37:04.617Z,25.44
2023-03-07T01:38:04.687Z,25.46
2023-03-07T01:39:04.786Z,25.47
2023-03-07T01:40:04.885Z,25.47
2023-03-07T01:41:04.914Z,25.47
2023-03-07T01:42:05.016Z,25.44
2023-03-07T01:43:05.091Z,25.44
2023-03-07T01:44:05.159Z,25.44
2023-03-07T01:45:05.245Z,25.44
2023-03-07T01:46:05.337Z,25.46
2023-03-07T01:47:05.382Z,25.43
2023-03-07T01:48:05.428Z,25.44
2023-03-07T01:49:05.507Z,25.44
2023-03-07T01:50:05.654Z,25.43
2023-03-07T01:51:05.636Z,25.44
2023-03-07T01:52:05.716Z,25.46
2023-03-07T01:53:05.835Z,25.43
2023-03-07T01:54:05.860Z,25.44
2023-03-07T01:55:05.944Z,25.43
2023-03-07T01:56:06.030Z,25.44
2023-03-07T01:57:06.104Z,25.44
2023-03-07T01:58:06.149Z,25.47
2023-03-07T01:59:06.214Z,25.44
2023-03-07T02:00:06.295Z,25.44
2023-03-07T02:01:06.396Z,25.46
2023-03-07T02:02:06.433Z,25.44
2023-03-07T02:03:06.524Z,25.47
2023-03-07T02:04:06.589Z,25.43
2023-03-07T02:05:06.644Z,25.41
2023-03-07T02:06:06.733Z,25.44
2023-03-07T02:07:06.776Z,25.44
2023-03-07T02:08:06.871Z,25.43
2023-03-07T02:09:06.941Z,25.44
2023-03-07T02:10:06.964Z,25.43
2023-03-07T02:11:07.076Z,25.43
2023-03-07T02:12:07.187Z,25.41
2023-03-07T02:13:07.224Z,25.43
2023-03-07T02:14:07.386Z,25.43
2023-03-07T02:15:07.368Z,25.44
2023-03-07T02:16:07.530Z,25.41
2023-03-07T02:17:07.673Z,25.43
2023-03-07T02:18:07.557Z,25.41
2023-03-07T02:19:07.651Z,25.41
2023-03-07T02:20:07.721Z,25.44
2023-03-07T02:21:07.770Z,25.40
2023-03-07T02:22:07.873Z,25.41
2023-03-07T02:23:07.942Z,25.40
2023-03-07T02:24:08.000Z,25.40
2023-03-07T02:25:08.098Z,25.43
2023-03-07T02:26:08.200Z,25.41
2023-03-07T02:27:08.320Z,25.41
2023-03-07T02:28:08.306Z,25.41
2023-03-07T02:29:08.399Z,25.41
2023-03-07T02:30:08.465Z,25.41
2023-03-07T02:31:08.574Z,25.41
2023-03-07T02:32:08.720Z,25.41
2023-03-07T02:33:08.713Z,25.40
2023-03-07T02:34:08.805Z,25.39
2023-03-07T02:35:08.865Z,25.41
2023-03-07T02:36:08.942Z,25.40
2023-03-07T02:37:09.043Z,25.36
2023-03-07T02:38:09.096Z,25.41
2023-03-07T02:39:09.157Z,25.39
2023-03-07T02:40:09.267Z,25.39
2023-03-07T02:41:09.321Z,25.34
2023-03-07T02:42:09.405Z,25.37
2023-03-07T02:43:09.515Z,25.34
2023-03-07T02:44:09.522Z,25.34
2023-03-07T02:45:09.634Z,25.34
2023-03-07T02:46:09.716Z,25.34
2023-03-07T02:47:09.822Z,25.33
2023-03-07T02:48:09.858Z,25.32
2023-03-07T02:49:09.967Z,25.30
2023-03-07T02:50:10.014Z,25.29
2023-03-07T02:51:10.109Z,25.29
2023-03-07T02:52:10.178Z,25.29
2023-03-07T02:53:10.284Z,25.27
2023-03-07T02:54:10.329Z,25.27
2023-03-07T02:55:10.418Z,25.26
2023-03-07T02:56:10.491Z,25.29
2023-03-07T02:57:10.590Z,25.29
2023-03-07T02:58:10.638Z,25.29
2023-03-07T02:59:10.669Z,25.27
2023-03-07T03:00:10.787Z,25.26
2023-03-07T03:01:10.857Z,25.30
2023-03-07T03:02:10.946Z,25.29
2023-03-07T03:03:11.022Z,25.27
2023-03-07T03:04:11.113Z,25.27
2023-03-07T03:05:11.162Z,25.27
2023-03-07T03:06:11.246Z,25.27
2023-03-07T03:07:11.363Z,25.27
2023-03-07T03:08:11.471Z,25.27
2023-03-07T03:09:11.497Z,25.26
2023-03-07T03:10:11.574Z,25.27
2023-03-07T03:11:11.689Z,25.29
2023-03-07T03:12:11.730Z,25.26
2023-03-07T03:13:11.852Z,25.29
2023-03-07T03:14:11.910Z,25.29
2023-03-07T03:15:12.000Z,25.29
2023-03-07T03:16:12.098Z,25.30
2023-03-07T03:17:12.145Z,25.29
2023-03-07T03:18:12.203Z,25.27
2023-03-07T03:19:12.312Z,25.29
2023-03-07T03:20:12.358Z,25.30
2023-03-07T03:21:12.426Z,25.27
2023-03-07T03:22:12.522Z,25.27
2023-03-07T03:23:12.611Z,25.29
2023-03-07T03:24:12.696Z,25.29
2023-03-07T03:25:12.713Z,25.29
2023-03-07T03:26:12.811Z,25.30
2023-03-07T03:27:12.896Z,25.29
2023-03-07T03:28:12.973Z,25.30
2023-03-07T03:29:13.039Z,25.29
2023-03-07T03:30:13.146Z,25.32
2023-03-07T03:31:13.173Z,25.32
2023-03-07T03:32:13.256Z,25.30
2023-03-07T03:33:13.296Z,25.32
2023-03-07T03:34:13.406Z,25.30
2023-03-07T03:35:13.498Z,25.33
2023-03-07T03:36:13.563Z,25.33
2023-03-07T03:37:13.617Z,25.33
2023-03-07T03:38:13.709Z,25.33
2023-03-07T03:39:13.764Z,25.33
2023-03-07T03:40:13.832Z,25.33
2023-03-07T03:41:13.907Z,25.33
2023-03-07T03:42:13.946Z,25.34
2023-03-07T03:43:14.026Z,25.33
2023-03-07T03:44:14.111Z,25.32
2023-03-07T03:45:14.153Z,25.34
2023-03-07T03:46:14.292Z,25.34
2023-03-07T03:47:14.287Z,25.32
2023-03-07T03:48:14.388Z,25.33
2023-03-07T03:49:14.474Z,25.34
2023-03-07T03:50:14.549Z,25.34
2023-03-07T03:51:14.675Z,25.34
2023-03-07T03:52:14.713Z,25.32
2023-03-07T03:53:14.808Z,25.32
2023-03-07T03:54:14.848Z,25.32
2023-03-07T03:55:14.960Z,25.33
2023-03-07T03:56:15.052Z,25.34
2023-03-07T03:57:15.101Z,25.36
2023-03-07T03:58:15.182Z,25.33
2023-03-07T03:59:15.267Z,25.34
2023-03-07T04:00:15.319Z,25.32
2023-03-07T04:01:15.413Z,25.34
2023-03-07T04:02:15.566Z,25.34
2023-03-07T04:03:15.542Z,25.34
2023-03-07T04:04:15.625Z,25.33
2023-03-07T04:05:15.741Z,25.33
2023-03-07T04:06:15.814Z,25.34
2023-03-07T04:07:15.911Z,25.34
2023-03-07T04:08:15.965Z,25.33
2023-03-07T04:09:16.026Z,25.34
2023-03-07T04:10:16.087Z,25.36
2023-03-07T04:11:16.187Z,25.33
2023-03-07T04:12:16.212Z,25.36
2023-03-07T04:13:16.320Z,25.33
2023-03-07T04:14:16.356Z,25.34
2023-03-07T04:15:16.528Z,25.34
2023-03-07T04:16:16.557Z,25.34
2023-03-07T04:17:16.636Z,25.36
2023-03-07T04:18:16.673Z,25.33
2023-03-07T04:19:16.752Z,25.34
2023-03-07T04:20:16.851Z,25.34
2023-03-07T04:21:16.896Z,25.33
2023-03-07T04:22:16.986Z,25.34
2023-03-07T04:23:17.045Z,25.32
2023-03-07T04:24:17.092Z,25.32
2023-03-07T04:25:17.191Z,25.29
2023-03-07T04:26:17.236Z,25.29
2023-03-07T04:27:17.316Z,25.29
2023-03-07T04:28:17.377Z,25.27
2023-03-07T04:29:17.470Z,25.25
2023-03-07T04:30:17.545Z,25.25
2023-03-07T04:31:17.651Z,25.25
2023-03-07T04:32:17.688Z,25.19
2023-03-07T04:33:17.763Z,25.23
2023-03-07T04:34:17.811Z,25.22
2023-03-07T04:35:17.883Z,25.23
2023-03-07T04:36:17.989Z,25.22
2023-03-07T04:37:18.051Z,25.25
2023-03-07T04:38:18.126Z,25.23
2023-03-07T04:39:18.219Z,25.23
2023-03-07T04:40:18.267Z,25.23
2023-03-07T04:41:18.382Z,25.23
2023-03-07T04:42:18.450Z,25.27
2023-03-07T04:43:18.503Z,25.25
2023-03-07T04:44:18.589Z,25.26
2023-03-07T04:45:18.666Z,25.26
2023-03-07T04:46:18.942Z,25.27
2023-03-07T04:47:18.826Z,25.29
2023-03-07T04:48:18.875Z,25.33
2023-03-07T04:49:18.960Z,25.30
2023-03-07T04:50:19.046Z,25.30
2023-03-07T04:51:19.165Z,25.32
2023-03-07T04:52:19.234Z,25.33
2023-03-07T04:53:19.280Z,25.32
2023-03-07T04:54:19.364Z,25.34
2023-03-07T04:55:19.420Z,25.33
2023-03-07T04:56:19.497Z,25.34
2023-03-07T04:57:19.596Z,25.36
2023-03-07T04:58:19.651Z,25.37
2023-03-07T04:59:21.396Z,25.37
2023-03-07T05:00:19.801Z,25.39
2023-03-07T05:01:19.927Z,25.37
2023-03-07T05:02:19.947Z,25.36
2023-03-07T05:03:20.018Z,25.39
2023-03-07T05:04:20.108Z,25.40
2023-03-07T05:05:20.149Z,25.40
2023-03-07T05:06:20.260Z,25.40
2023-03-07T05:07:20.334Z,25.43
2023-03-07T05:08:20.401Z,25.41
2023-03-07T05:09:20.483Z,25.43
2023-03-07T05:10:20.541Z,25.43
2023-03-07T05:11:20.636Z,25.41
2023-03-07T05:12:20.716Z,25.43
2023-03-07T05:13:20.726Z,25.41
2023-03-07T05:14:20.824Z,25.43
2023-03-07T05:15:20.867Z,25.43
2023-03-07T05:16:20.978Z,25.41
2023-03-07T05:17:21.041Z,25.40
2023-03-07T05:18:21.145Z,25.41
2023-03-07T05:19:21.203Z,25.39
2023-03-07T05:20:21.277Z,25.41
2023-03-07T05:21:21.334Z,25.40
2023-03-07T05:22:21.438Z,25.40
2023-03-07T05:23:21.503Z,25.39
2023-03-07T05:24:21.601Z,25.41
2023-03-07T05:25:21.652Z,25.40
2023-03-07T05:26:21.756Z,25.40
2023-03-07T05:27:21.822Z,25.39
2023-03-07T05:28:21.899Z,25.37
2023-03-07T05:29:21.978Z,25.39
2023-03-07T05:30:22.053Z,25.39
2023-03-07T05:31:22.173Z,25.43
2023-03-07T05:32:22.245Z,25.40
2023-03-07T05:33:22.259Z,25.40
2023-03-07T05:34:22.342Z,25.41
2023-03-07T05:35:22.431Z,25.40
2023-03-07T05:36:22.514Z,25.43
2023-03-07T05:37:22.568Z,25.43
2023-03-07T05:38:22.671Z,25.44
2023-03-07T05:39:22.733Z,25.47
2023-03-07T05:40:22.818Z,25.44
2023-03-07T05:41:22.983Z,25.46
2023-03-07T05:42:22.943Z,25.46
2023-03-07T05:43:22.986Z,25.46
2023-03-07T05:44:23.032Z,25.49
2023-03-07T05:45:23.121Z,25.47
2023-03-07T05:46:23.238Z,25.49
2023-03-07T05:47:23.235Z,25.50
2023-03-07T05:48:23.301Z,25.51
2023-03-07T05:49:23.409Z,25.50
2023-03-07T05:50:23.445Z,25.49
2023-03-07T05:51:23.547Z,25.53
2023-03-07T05:52:23.593Z,25.51
2023-03-07T05:53:23.648Z,25.51
2023-03-07T05:54:23.744Z,25.51
2023-03-07T05:55:23.768Z,25.50
2023-03-07T05:56:23.826Z,25.50
2023-03-07T05:57:23.995Z,25.49
2023-03-07T05:58:23.977Z,25.50
2023-03-07T05:59:24.064Z,25.50
2023-03-07T06:01:43.789Z,25.47
2023-03-07T06:02:43.812Z,25.47
2023-03-07T06:03:43.821Z,25.47
2023-03-07T06:04:43.905Z,25.49
2023-03-07T06:05:43.858Z,25.49
2023-03-07T06:06:43.882Z,25.51
2023-03-07T06:07:43.951Z,25.50
2023-03-07T06:08:43.882Z,25.50
2023-03-07T06:09:43.959Z,25.51
2023-03-07T06:10:43.942Z,25.51
2023-03-07T06:11:43.929Z,25.50
2023-03-07T06:12:43.969Z,25.51
2023-03-07T06:13:43.933Z,25.51
2023-03-07T06:14:43.986Z,25.49
2023-03-07T06:15:43.987Z,25.50
2023-03-07T06:16:43.969Z,25.50
2023-03-07T06:17:44.030Z,25.50
2023-03-07T06:18:44.039Z,25.49
2023-03-07T06:19:44.026Z,25.51
2023-03-07T06:20:44.045Z,25.46
2023-03-07T06:21:44.042Z,25.46
2023-03-07T06:22:44.106Z,25.40
2023-03-07T06:23:44.176Z,25.40
2023-03-07T06:24:44.107Z,25.40
2023-03-07T06:26:44.113Z,25.40
2023-03-07T06:27:44.191Z,25.39
2023-03-07T06:28:44.173Z,25.40
2023-03-07T06:29:44.213Z,25.40
2023-03-07T06:30:44.221Z,25.39
2023-03-07T06:31:44.219Z,25.39
2023-03-07T06:32:44.559Z,25.41
2023-03-07T06:33:44.250Z,25.43
2023-03-07T06:34:44.260Z,25.43
2023-03-07T06:35:44.280Z,25.43
2023-03-07T06:36:44.297Z,25.44
2023-03-07T06:37:44.557Z,25.46
2023-03-07T06:38:44.281Z,25.49
2023-03-07T06:39:44.327Z,25.49
2023-03-07T06:40:44.296Z,25.50
2023-03-07T06:41:44.298Z,25.53
2023-03-07T06:42:44.548Z,25.53
2023-03-07T06:43:44.570Z,25.56
2023-03-07T06:44:44.399Z,25.61
2023-03-07T06:45:51.440Z,25.61
2023-03-07T06:46:44.363Z,25.64
2023-03-07T06:47:44.374Z,25.68
2023-03-07T06:49:44.386Z,25.76
2023-03-07T06:50:44.352Z,25.81
2023-03-07T06:51:46.176Z,25.84
2023-03-07T06:52:44.748Z,25.87
2023-03-07T06:53:44.607Z,25.88
2023-03-07T06:54:44.442Z,25.95
2023-03-07T06:55:45.102Z,25.97
2023-03-07T06:56:45.499Z,26.01
2023-03-07T06:57:44.379Z,26.05
2023-03-07T06:58:44.558Z,26.11
2023-03-07T06:59:44.388Z,26.09
2023-03-07T07:00:44.420Z,26.15
2023-03-07T07:01:44.506Z,26.21
2023-03-07T07:02:44.511Z,26.24
2023-03-07T07:03:44.399Z,26.25
2023-03-07T07:04:44.403Z,26.28
2023-03-07T07:05:44.401Z,26.31
2023-03-07T07:06:44.404Z,26.34
2023-03-07T07:07:44.365Z,26.36
2023-03-07T07:08:44.561Z,26.39
2023-03-07T07:09:44.370Z,26.43
2023-03-07T07:10:44.369Z,26.45
2023-03-07T07:11:44.385Z,26.48
2023-03-07T07:12:44.382Z,26.52
2023-03-07T07:13:44.564Z,26.52
2023-03-07T07:14:44.354Z,26.53
2023-03-07T07:15:44.325Z,26.56
2023-03-07T07:16:44.377Z,26.59
2023-03-07T07:17:44.314Z,26.60
2023-03-07T07:18:44.344Z,26.64
2023-03-07T07:19:44.346Z,26.63
2023-03-07T07:20:44.359Z,26.69
2023-03-07T07:21:44.405Z,26.68
2023-03-07T07:22:44.402Z,26.69
2023-03-07T07:23:44.565Z,26.72
2023-03-07T07:24:44.466Z,26.73
2023-03-07T07:25:44.482Z,26.75
2023-03-07T07:26:44.500Z,26.75
2023-03-07T07:27:44.607Z,26.76
2023-03-07T07:28:44.532Z,26.78
2023-03-07T07:29:44.493Z,26.80
2023-03-07T07:30:44.577Z,26.80
2023-03-07T07:31:44.599Z,26.82
2023-03-07T07:32:44.939Z,26.87
2023-03-07T07:33:44.625Z,26.86
2023-03-07T07:34:44.637Z,26.87
2023-03-07T07:35:44.681Z,26.83
2023-03-07T07:36:45.560Z,26.85
2023-03-07T07:37:44.708Z,26.87
2023-03-07T07:38:44.729Z,26.93
2023-03-07T07:41:44.848Z,27.01
2023-03-07T07:42:44.813Z,27.00
2023-03-07T07:43:44.876Z,27.03
2023-03-07T07:44:44.865Z,27.04
2023-03-07T07:45:44.884Z,27.04
2023-03-07T07:47:44.896Z,27.09
2023-03-07T07:48:45.113Z,27.07
2023-03-07T07:49:45.013Z,27.09
2023-03-07T07:50:44.945Z,27.09
2023-03-07T07:51:44.975Z,27.13
2023-03-07T07:52:45.027Z,27.10
2023-03-07T08:13:45.481Z,27.24
2023-03-07T08:14:45.497Z,27.23
2023-03-07T08:15:46.199Z,27.24
2023-03-07T08:16:45.507Z,27.27
2023-03-07T08:17:45.565Z,27.27
2023-03-07T08:18:45.584Z,27.30
2023-03-07T08:20:45.642Z,27.27
2023-03-07T08:21:45.662Z,27.30
2023-03-07T08:22:45.635Z,27.30
2023-03-07T08:23:45.704Z,27.31
2023-03-07T08:24:45.687Z,27.33
2023-03-07T08:25:45.703Z,27.31
2023-03-07T08:26:45.741Z,27.33
2023-03-07T08:27:45.742Z,27.33
2023-03-07T08:28:45.828Z,27.34
2023-03-07T08:29:45.822Z,27.34
2023-03-07T08:30:45.921Z,27.37
2023-03-07T08:31:45.845Z,27.38
2023-03-07T08:32:45.979Z,27.37
2023-03-07T08:34:45.966Z,27.37
2023-03-07T08:35:46.012Z,27.41
2023-03-07T08:36:46.062Z,27.40
2023-03-07T08:37:46.007Z,27.43
2023-03-07T09:54:50.709Z,26.21
2023-03-07T12:36:51.358Z,27.15
2023-03-07T13:05:50.249Z,27.00
2023-03-07T13:07:50.272Z,26.99
2023-03-07T13:08:50.312Z,26.97
2023-03-07T13:09:50.303Z,26.96
2023-03-07T13:10:50.346Z,26.94
2023-03-07T13:11:50.378Z,26.93
2023-03-07T13:12:50.389Z,26.92
2023-03-07T13:13:50.415Z,26.94
2023-03-07T13:14:50.401Z,26.89
2023-03-07T13:15:50.399Z,26.87
2023-03-07T13:16:50.476Z,26.86
2023-03-07T13:17:50.453Z,26.85
2023-03-07T13:18:50.465Z,26.86
2023-03-07T13:19:50.492Z,26.83
2023-03-07T13:20:50.560Z,26.85
2023-03-07T13:21:50.540Z,26.82
2023-03-07T13:22:50.604Z,26.80
2023-03-07T13:23:50.596Z,26.80
2023-03-07T13:24:50.678Z,26.80
2023-03-07T13:25:50.624Z,26.82
2023-03-07T13:26:50.666Z,26.80
2023-03-07T13:27:50.622Z,26.79
2023-03-07T13:28:50.656Z,26.79
2023-03-07T13:29:50.700Z,26.79
2023-03-07T13:30:50.723Z,26.79
2023-03-07T13:31:50.736Z,26.79
2023-03-07T13:32:50.790Z,26.78
2023-03-07T13:33:50.765Z,26.79
2023-03-07T13:34:50.770Z,26.76
2023-03-07T13:35:50.819Z,26.75
2023-03-07T13:36:50.781Z,26.75
2023-03-07T13:37:50.801Z,26.79
2023-03-07T13:38:50.800Z,26.78
2023-03-07T13:39:50.808Z,26.78
2023-03-07T13:40:50.868Z,26.79
2023-03-07T13:41:50.836Z,26.75
2023-03-07T13:42:50.792Z,26.73
2023-03-07T13:43:50.831Z,26.73
2023-03-07T13:44:50.860Z,26.76
2023-03-07T13:45:50.908Z,26.76
2023-03-07T13:46:50.933Z,26.76
2023-03-07T13:47:50.931Z,26.76
2023-03-07T13:48:50.930Z,26.78
2023-03-07T14:58:52.817Z,26.12
2023-03-07T17:41:00.262Z,25.70
2023-03-07T17:42:00.301Z,25.67
2023-03-07T17:43:00.350Z,25.70
2023-03-07T17:44:00.401Z,25.68
2023-03-07T17:45:00.464Z,25.68
2023-03-07T17:46:00.573Z,25.68
2023-03-07T18:11:01.687Z,25.58
2023-03-07T18:20:02.221Z,25.60
2023-03-07T18:21:02.254Z,25.60
2023-03-07T18:22:02.313Z,25.60
2023-03-07T18:23:02.375Z,25.60
2023-03-07T18:24:02.436Z,25.58
2023-03-07T18:25:02.448Z,25.58
2023-03-07T18:26:02.499Z,25.57
2023-03-07T18:27:02.587Z,25.60
2023-03-07T18:28:02.628Z,25.60
2023-03-07T18:29:02.660Z,25.60
2023-03-07T18:30:02.736Z,25.58
2023-03-07T20:55:40.308Z,25.71
2023-03-07T20:56:40.287Z,25.70
2023-03-07T20:57:40.379Z,25.73
2023-03-07T20:58:40.405Z,25.71
2023-03-07T20:59:40.481Z,25.71
2023-03-07T21:00:40.519Z,25.73
2023-03-07T21:01:40.630Z,25.71
2023-03-07T21:02:40.595Z,25.73
2023-03-07T21:03:40.666Z,25.73
2023-03-07T21:04:40.697Z,25.73
2023-03-07T21:05:40.797Z,25.73
2023-03-07T21:06:40.807Z,25.73
2023-03-07T21:07:40.842Z,25.73
2023-03-07T21:08:40.899Z,25.74
2023-03-07T21:09:40.964Z,25.73
2023-03-07T21:10:41.006Z,25.73
2023-03-07T21:11:41.039Z,25.74
2023-03-07T21:12:41.122Z,25.73
2023-03-07T21:13:41.134Z,25.76
2023-03-07T21:14:41.198Z,25.71
2023-03-07T21:15:41.254Z,25.76
2023-03-07T21:16:41.411Z,25.74
2023-03-07T21:17:41.358Z,25.73
2023-03-07T21:18:41.411Z,25.74
2023-03-07T21:19:41.451Z,25.74
2023-03-07T21:20:41.516Z,25.74
2023-03-07T21:21:41.542Z,25.73
2023-03-07T21:22:41.612Z,25.74
2023-03-07T21:23:41.781Z,25.74
2023-03-07T21:24:41.688Z,25.73
2023-03-07T21:25:41.750Z,25.73
2023-03-07T21:26:41.760Z,25.73
2023-03-07T21:27:41.838Z,25.73
2023-03-07T21:28:41.826Z,25.71
2023-03-07T21:29:41.915Z,25.74
2023-03-07T21:30:41.888Z,25.76
2023-03-07T21:31:42.073Z,25.74
2023-03-07T21:32:42.094Z,25.74
2023-03-07T21:33:42.049Z,25.74
2023-03-07T21:34:42.093Z,25.73
2023-03-07T21:35:42.160Z,25.76
2023-03-07T21:36:42.164Z,25.76
2023-03-07T21:37:42.273Z,25.76
2023-03-07T21:38:42.253Z,25.73
2023-03-07T21:39:42.280Z,25.74
2023-03-07T21:40:42.365Z,25.71
2023-03-07T21:41:42.395Z,25.73
2023-03-07T21:42:42.400Z,25.76
2023-03-07T21:43:42.514Z,25.74
2023-03-07T21:44:42.492Z,25.74
2023-03-07T21:45:42.626Z,25.76
2023-03-07T21:46:42.608Z,25.74
2023-03-07T21:47:42.694Z,25.74
2023-03-07T21:48:42.704Z,25.71
2023-03-07T21:49:42.755Z,25.70
2023-03-07T21:50:42.845Z,25.68
2023-03-07T21:51:42.921Z,25.67
2023-03-07T21:52:42.901Z,25.63
2023-03-07T21:53:42.976Z,25.61
2023-03-07T21:54:42.985Z,25.60
2023-03-07T21:55:43.053Z,25.58
2023-03-07T21:56:43.100Z,25.58
2023-03-07T21:57:43.179Z,25.60
2023-03-07T21:58:43.180Z,25.56
2023-03-07T21:59:43.214Z,25.56
2023-03-07T22:00:43.311Z,25.58
2023-03-07T22:01:43.297Z,25.58
2023-03-07T22:02:43.385Z,25.57
2023-03-07T22:03:43.559Z,25.60
